WEATHER DATA

YESTERDAY
Time Temp. Dewp. Hum. Bar.
00:06 17.2 15.9 92 1016.8
00:16 17.1 15.8 92 1016.5
00:25 17 15.7 92 1016.5
00:36 16.9 15.6 92 1016.5
00:46 16.8 15.5 92 1016.6
00:56 16.8 15.5 92 1016.6
01:06 16.7 15.4 92 1016.6
01:16 16.6 15.5 93 1016.5
01:26 16.6 15.5 93 1016.4
01:36 16.6 15.5 93 1016.4
01:47 16.6 15.5 93 1016.4
01:57 16.7 15.6 93 1016.2
02:06 16.7 15.6 93 1016
02:17 16.8 15.7 93 1016
02:27 16.7 15.6 93 1016.1
02:37 16.7 15.6 93 1016.2
02:47 16.7 15.6 93 1016.1
02:57 16.7 15.6 93 1016
03:07 16.7 15.7 94 1016.1
03:17 16.7 15.7 94 1016
03:27 16.7 15.6 93 1015.8
03:38 16.7 15.6 93 1015.8
03:48 16.6 15.5 93 1015.9
03:57 16.5 15.4 93 1015.7
04:08 16.5 15.4 93 1015.7
04:18 16.4 15.3 93 1015.8
04:28 16.4 15.4 94 1015.7
04:38 16.3 15.3 94 1015.7
04:48 16.3 15.3 94 1015.6
04:58 16.2 15.2 94 1015.7
05:08 16.1 15.1 94 1015.6
05:19 16 15 94 1015.4
05:29 15.9 14.9 94 1015.3
05:38 15.9 14.9 94 1015.4
05:48 15.8 14.8 94 1015.4
05:59 15.9 14.9 94 1015.5
06:09 15.9 14.9 94 1015.6
06:19 15.9 14.9 94 1015.6
06:29 15.9 14.9 94 1015.6
06:39 15.9 14.9 94 1015.7
06:49 15.9 14.9 94 1015.5
06:59 15.8 14.8 94 1015.6
07:19 15.8 14.8 94 1015.9
07:29 15.9 14.9 94 1015.9
07:40 15.9 14.9 94 1016.1
08:00 16 15 94 1016.2
08:09 16.2 15.2 94 1016
08:20 16.3 15.3 94 1016.2
08:30 16.4 15.3 93 1016.1
08:40 16.5 15.4 93 1016.1
08:50 16.7 15.6 93 1016
09:00 16.9 15.8 93 1015.8
09:10 17.2 15.9 92 1015.8
09:20 17.4 16.1 92 1015.7
09:31 17.7 16.4 92 1015.7
09:41 17.9 16.4 91 1015.7
09:50 18.1 16.6 91 1015.7
10:01 18.4 16.7 90 1015.8
10:11 18.6 16.8 89 1015.9
10:21 18.8 16.9 89 1015.9
10:31 19 17 88 1016
10:41 19.1 16.9 87 1016
10:51 19.1 16.7 86 1016
11:01 19.1 16.7 86 1016.2
11:11 19.1 16.7 86 1016.1
11:22 19.2 16.8 86 1016.1
11:31 19.3 17.1 87 1015.9
11:41 19.6 17.2 86 1016
11:52 19.7 17.1 85 1016
12:02 19.8 17 84 1016
12:12 19.8 17 84 1016
12:22 19.8 17 84 1015.9
12:32 19.7 16.9 84 1015.9
12:42 19.5 16.7 84 1015.7
12:52 19.5 16.7 84 1015.5
13:03 19.4 16.6 84 1015.5
13:13 19.4 16.6 84 1015.5
13:22 19.4 16.6 84 1015.3
13:32 19.4 16.6 84 1015.1
13:43 19.4 16.6 84 1015.1
13:53 19.5 16.7 84 1014.9
14:03 19.5 16.5 83 1014.7
14:13 19.4 16.4 83 1014.6
14:23 19.3 16.2 82 1014.6
14:33 19.2 16.1 82 1014.7
14:43 19.2 16.1 82 1014.8
14:54 19.2 16.2 83 1015
15:03 19.1 16.1 83 1015.2
15:13 19.1 16.1 83 1015.2
15:24 19 16 83 1015.2
15:34 18.9 16 83 1015
15:44 18.8 16 84 1014.9
15:53 18.7 15.9 84 1015
16:04 18.6 15.8 84 1015.3
16:14 18.5 15.9 85 1015.3
16:24 18.5 15.9 85 1015.4
16:34 18.4 15.8 85 1015.5
16:44 18.3 15.9 86 1015.6
16:54 18.2 15.8 86 1015.5
17:04 18.1 15.9 87 1015.7
17:15 17.9 15.7 87 1015.7
17:25 17.8 15.8 88 1015.6
17:34 17.7 15.9 89 1015.5
17:45 17.6 15.8 89 1015.4
17:55 17.5 15.8 90 1015.4
18:05 17.5 15.8 90 1015.4
18:15 17.4 15.7 90 1015.4
18:25 17.4 15.7 90 1015.4
18:35 17.3 15.6 90 1015.6
18:45 17.3 15.8 91 1015.5
18:55 17.2 15.7 91 1015.5
19:06 17.2 15.7 91 1015.4
19:16 17.2 15.7 91 1015.4
19:25 17.2 15.7 91 1015.4
19:36 17.3 15.8 91 1015.4
19:46 17.3 15.8 91 1015.6
19:56 17.4 15.9 91 1015.6
20:06 17.5 16 91 1015.6
20:16 17.5 16 91 1015.8
20:26 17.5 16 91 1015.9
20:36 17.5 16 91 1016.1
20:47 17.5 16 91 1016.1
20:57 17.4 15.9 91 1016.2
21:06 17.4 15.9 91 1016.3
21:16 17.3 16 92 1016.4
21:27 17.2 15.9 92 1016.5
21:37 17.2 15.9 92 1016.5
21:47 17.1 15.8 92 1016.5
21:57 17 15.7 92 1016.6
22:07 16.9 15.6 92 1016.7
22:17 16.9 15.6 92 1016.6
22:27 16.8 15.5 92 1016.5
22:38 16.7 15.4 92 1016.6
22:47 16.6 15.3 92 1016.7
22:57 16.5 15.2 92 1016.7
23:08 16.4 15.1 92 1016.7
23:18 16.4 15.1 92 1016.8
23:28 16.3 15 92 1016.8
23:37 16.2 15.1 93 1016.8
23:48 16.2 15.1 93 1016.8
23:58 16.1 15 93 1016.7

DAY STATISTIC

2019-11-14
TEMPERATURE
AVERAGE
17.5
HIGH
19.8
12:02
LOW
15.8
05:48
PRESSURE
AVERAGE
1015.8
HIGH
1016.8
00:06
LOW
1014.6
14:13
DEWPOINT
AVERAGE
15.8
HIGH
17.2
11:41
LOW
14.8
05:48
HUMIDITY
AVERAGE
90
HIGH
94
03:07
LOW
82
14:23
TEMPERATURE (°C)
LOW
15.8
HIGH
19.8
AVERAGE
17.5
PRESSURE (hpa)
LOW
1014.6
HIGH
1016.8
AVERAGE
1015.8
DEVICE